LFMNLFKC

Guest
Details From LFMN - Nice/Cote d'Azur
To LFKC - St Catherine
Flight Number -
Tags generated
Created
Modified
Stats Distance 97 nm / 179 km
Max Altitude 4,800 ft / 1,463 m
Waypoints 3
Social Downloads 1
Likes 0
Share VATSIM

Download

Looking for another format? Having issues loading an existing format? Contact us
Advertisement - Login to hide

Notes

Basic altitude profile: - Ascent Rate: 2500ft/min - Ascent Speed: 250kts - Cruise Altitude: 20000ft - Cruise Speed: 300kts - Descent Rate: 1500ft/min - Descent Speed: 250kts

Route

LFMN GORIT LFKC

ID Type Via Altitude Latitude Longitude Leg Dist Tot Dist Heading (true) Name
O LFMN APT - 0 ft / 0 m 43.65798˚ 7.21536˚ - 0 nm - Nice/Cote d'Azur
GORIT FIX - 4,800 ft / 1,463 m 42.71694˚ 8.52806˚ 80 nm 80 nm 134° / 135° -
O LFKC APT - 0 ft / 0 m 42.53076˚ 8.79293˚ 16 nm 96 nm 134° / 134° St Catherine

Altitude Profile

Advertisement - Login to hide

LFMN

Details ICAO LFMN (NCE)
Name Nice/Cote d'Azur
Region France
Timezone Unknown (UTC+0.0)
Stats Elevation 12 ft / 4 m (AMSL)
Location 43.657981° 7.215362°
Runways 2
Magnetic Variation 2.015° E

METAR

LFMN 110430Z 27004KT 200V350 9999 -RA SCT008 BKN013 14/14 Q0996 NOSIG

Decode

TAF

TAF TAF LFMN 110200Z 1103/1209 34010KT 8000 RA FEW005 BKN008 BECMG 1104/1106 20020KT TEMPO 1106/1121 3000 +SHRA FEW015TCU TEMPO 1110/1118 22025G40KT BECMG 1118/1120 24015KT BECMG 1122/1124 NSW SCT020

Decode

Departure Runways

ID Width Length Bearing (true) Bearing (mag) Surface Threshold Offset Overrun Length
04L 148 ft / 45 m 8,427 ft / 2,569 m 44.85° 42.84° Asphalt 0 ft / 0 m 131 ft / 40 m
04R 148 ft / 45 m 9,720 ft / 2,963 m 44.60° 42.59° Asphalt 0 ft / 0 m 427 ft / 130 m
22L 148 ft / 45 m 9,720 ft / 2,963 m 224.62° 222.61° Asphalt 0 ft / 0 m 525 ft / 160 m
22R 148 ft / 45 m 8,427 ft / 2,569 m 224.87° 222.86° Asphalt 0 ft / 0 m 492 ft / 150 m

LFKC

Details ICAO LFKC (CLY)
Name St Catherine
Region France
Timezone Europe/Paris (UTC+1.0)
Stats Elevation 208 ft / 63 m (AMSL)
Location 42.530762° 8.792925°
Runways 1
Magnetic Variation 2.341° E

METAR

LFKC 110430Z AUTO 20017G30KT 130V230 9999 -RA BKN036/// BKN045/// BKN058/// 16/11 Q0998 TEMPO 20025G45KT RA

Decode

TAF

TAF LFKC 110200Z 1103/1203 20020G35KT 9999 FEW040 BKN050 BKN060 TEMPO 1103/1108 RA PROB40 TEMPO 1103/1107 20025G45KT BECMG 1117/1119 22025G45KT BECMG 1120/1122 RA BECMG 1200/1202 22020G30KT TX17/1112Z TN09/1203Z

Decode

Destination Runways

ID Width Length Bearing (true) Bearing (mag) Surface Threshold Offset Overrun Length
18 131 ft / 40 m 7,596 ft / 2,315 m 179.60° 177.26° Concrete 0 ft / 0 m 0 ft / 0 m
36 131 ft / 40 m 7,596 ft / 2,315 m 359.60° 357.26° Concrete 656 ft / 200 m 0 ft / 0 m

Approach Navaids

Runway Type Ident Frequency Range Bearing (true) Bearing (mag) Slope Elevation
18 Localiser CLI 109.50 MHz 18 nm / 33 km 179.62° 177.28° - 230 ft / 70 m (AMSL)
18 DME CLI 109.50 MHz 18 nm / 33 km - - - 230 ft / 70 m (AMSL)

Popular Alternatives